createdAt,value
2018-11-04T00:01:23.891Z,95351.42
2018-11-04T00:03:53.103Z,95351.11
2018-11-04T00:06:22.323Z,95353.16
2018-11-04T00:08:51.588Z,95355.09
2018-11-04T00:11:20.759Z,95344.47
2018-11-04T00:13:49.951Z,95342.98
2018-11-04T00:16:19.163Z,95341.57
2018-11-04T00:18:49.439Z,95341.85
2018-11-04T00:21:18.635Z,95332.96
2018-11-04T00:23:47.904Z,95333.58
2018-11-04T00:26:17.036Z,95339.61
2018-11-04T00:28:46.253Z,95336.39
2018-11-04T00:31:15.451Z,95331.27
2018-11-04T00:33:44.632Z,95326.45
2018-11-04T00:36:13.843Z,95336.06
2018-11-04T00:38:43.054Z,95337.72
2018-11-04T00:41:12.250Z,95327.45
2018-11-04T00:43:41.450Z,95328.23
2018-11-04T00:46:10.637Z,95323.44
2018-11-04T00:48:39.839Z,95325.31
2018-11-04T00:51:09.039Z,95324.52
2018-11-04T00:53:38.244Z,95326.08
2018-11-04T00:56:07.434Z,95317.97
2018-11-04T00:58:36.652Z,95318.59
2018-11-04T01:01:06.465Z,95316.28
2018-11-04T01:03:35.650Z,95314.41
2018-11-04T01:06:04.974Z,95305.87
2018-11-04T01:08:34.168Z,95302.46
2018-11-04T01:11:03.363Z,95295.27
2018-11-04T01:13:32.548Z,95306.08
2018-11-04T01:16:01.754Z,95297.41
2018-11-04T01:18:30.931Z,95298.01
2018-11-04T01:21:00.173Z,95293.65
2018-11-04T01:23:29.360Z,95292.59
2018-11-04T01:25:58.833Z,95293.72
2018-11-04T01:28:28.015Z,95286.18
2018-11-04T01:30:57.974Z,95285.94
2018-11-04T01:33:27.155Z,95282.91
2018-11-04T01:35:56.383Z,95285.48
2018-11-04T01:38:25.573Z,95284.49
2018-11-04T01:40:54.790Z,95265.30
2018-11-04T01:43:23.990Z,95268.09
2018-11-04T01:45:53.175Z,95266.61
2018-11-04T01:48:22.371Z,95268.99
2018-11-04T01:50:51.580Z,95258.91
2018-11-04T01:53:20.771Z,95254.20
2018-11-04T01:55:49.955Z,95249.53
2018-11-04T01:58:19.155Z,95246.23
2018-11-04T02:00:48.359Z,95252.13
2018-11-04T02:03:17.551Z,95247.58
2018-11-04T02:05:46.751Z,95242.44
2018-11-04T02:08:15.955Z,95240.69
2018-11-04T02:10:45.167Z,95236.39
2018-11-04T02:13:14.367Z,95232.25
2018-11-04T02:15:43.573Z,95229.12
2018-11-04T02:18:12.771Z,95226.80
2018-11-04T02:20:41.964Z,95216.83
2018-11-04T02:23:11.160Z,95210.11
2018-11-04T02:25:40.363Z,95212.25
2018-11-04T02:28:09.555Z,95207.33
2018-11-04T02:30:38.752Z,95219.41
2018-11-04T02:33:07.962Z,95231.90
2018-11-04T02:35:37.151Z,95232.49
2018-11-04T02:38:06.339Z,95235.56
2018-11-04T02:40:35.535Z,95240.00
2018-11-04T02:43:04.867Z,95232.09
2018-11-04T02:45:34.071Z,95239.20
2018-11-04T02:48:03.263Z,95241.55
2018-11-04T02:50:32.470Z,95236.05
2018-11-04T02:53:01.680Z,95236.45
2018-11-04T02:55:30.880Z,95241.55
2018-11-04T02:58:00.112Z,95235.63
2018-11-04T03:00:29.313Z,95232.12
2018-11-04T03:02:58.510Z,95227.50
2018-11-04T03:05:28.611Z,95232.42
2018-11-04T03:07:57.797Z,95215.17
2018-11-04T03:10:27.003Z,95215.03
2018-11-04T03:12:56.192Z,95209.94
2018-11-04T03:15:25.399Z,95206.19
2018-11-04T03:17:54.627Z,95219.00
2018-11-04T03:20:23.831Z,95223.50
2018-11-04T03:22:53.271Z,95225.75
2018-11-04T03:25:22.459Z,95213.56
2018-11-04T03:27:51.630Z,95212.09
2018-11-04T03:30:20.835Z,95213.26
2018-11-04T03:32:50.009Z,95204.19
2018-11-04T03:35:19.206Z,95196.59
2018-11-04T03:37:48.419Z,95190.63
2018-11-04T03:40:17.615Z,95193.90
2018-11-04T03:42:46.828Z,95200.51
2018-11-04T03:45:16.018Z,95201.20
2018-11-04T03:47:45.211Z,95190.73
2018-11-04T03:50:14.423Z,95189.42
2018-11-04T03:52:43.718Z,95185.78
2018-11-04T03:55:12.924Z,95184.50
2018-11-04T03:57:42.091Z,95181.78
2018-11-04T04:00:12.676Z,95184.09
2018-11-04T04:02:42.886Z,95191.73
2018-11-04T04:05:12.364Z,95191.24
2018-11-04T04:07:41.554Z,95174.14
2018-11-04T04:10:10.747Z,95175.59
2018-11-04T04:12:39.939Z,95180.06
2018-11-04T04:15:10.282Z,95170.11
2018-11-04T04:17:39.543Z,95158.70
2018-11-04T04:20:09.023Z,95156.22
2018-11-04T04:22:38.206Z,95165.51
2018-11-04T04:25:07.559Z,95160.69
2018-11-04T04:27:36.786Z,95157.31
2018-11-04T04:30:08.746Z,95160.76
2018-11-04T04:32:37.941Z,95160.23
2018-11-04T04:35:08.019Z,95151.14
2018-11-04T04:37:37.242Z,95144.23
2018-11-04T04:40:06.562Z,95145.09
2018-11-04T04:42:35.756Z,95146.52
2018-11-04T04:45:04.979Z,95143.09
2018-11-04T04:47:34.274Z,95135.05
2018-11-04T04:50:03.479Z,95141.24
2018-11-04T04:52:32.675Z,95137.41
2018-11-04T04:55:01.867Z,95134.01
2018-11-04T04:57:31.071Z,95130.86
2018-11-04T05:00:00.257Z,95126.89
2018-11-04T05:02:29.462Z,95133.06
2018-11-04T05:04:58.654Z,95129.52
2018-11-04T05:07:27.842Z,95133.77
2018-11-04T05:09:57.078Z,95136.20
2018-11-04T05:12:40.975Z,95136.13
2018-11-04T05:15:10.180Z,95136.09
2018-11-04T05:17:39.363Z,95136.36
2018-11-04T05:20:08.562Z,95128.67
2018-11-04T05:22:37.758Z,95125.72
2018-11-04T05:25:06.998Z,95122.13
2018-11-04T05:27:36.206Z,95115.56
2018-11-04T05:30:08.807Z,95111.80
2018-11-04T05:32:38.003Z,95118.91
2018-11-04T05:35:07.595Z,95117.89
2018-11-04T05:37:37.322Z,95117.47
2018-11-04T05:40:06.919Z,95119.52
2018-11-04T05:42:36.114Z,95128.21
2018-11-04T05:45:06.230Z,95120.69
2018-11-04T05:47:35.419Z,95115.73
2018-11-04T05:50:05.170Z,95119.74
2018-11-04T05:52:34.559Z,95117.05
2018-11-04T05:55:03.892Z,95124.15
2018-11-04T05:57:33.168Z,95121.20
2018-11-04T06:00:02.356Z,95118.70
2018-11-04T06:02:31.544Z,95099.14
2018-11-04T06:05:00.720Z,95116.92
2018-11-04T06:07:29.931Z,95114.97
2018-11-04T06:09:59.118Z,95117.06
2018-11-04T06:12:28.326Z,95111.35
2018-11-04T06:14:57.529Z,95120.98
2018-11-04T06:17:26.718Z,95122.80
2018-11-04T06:19:55.907Z,95116.45
2018-11-04T06:22:25.135Z,95127.34
2018-11-04T06:24:54.339Z,95124.52
2018-11-04T06:27:23.525Z,95129.52
2018-11-04T06:29:52.722Z,95124.73
2018-11-04T06:32:21.955Z,95120.02
2018-11-04T06:34:51.167Z,95114.97
2018-11-04T06:37:20.367Z,95117.58
2018-11-04T06:39:49.574Z,95114.14
2018-11-04T06:42:18.777Z,95118.41
2018-11-04T06:44:47.998Z,95121.09
2018-11-04T06:47:17.231Z,95114.77
2018-11-04T06:49:46.408Z,95114.20
2018-11-04T06:52:15.615Z,95111.08
2018-11-04T06:54:44.799Z,95115.31
2018-11-04T06:57:13.984Z,95115.19
2018-11-04T06:59:43.201Z,95121.31
2018-11-04T07:02:12.387Z,95121.25
2018-11-04T07:04:41.575Z,95121.97
2018-11-04T07:07:10.783Z,95118.07
2018-11-04T07:09:39.982Z,95123.93
2018-11-04T07:12:09.170Z,95128.33
2018-11-04T07:14:38.367Z,95128.52
2018-11-04T07:17:07.576Z,95134.42
2018-11-04T07:19:36.774Z,95131.45
2018-11-04T07:22:06.085Z,95129.31
2018-11-04T07:24:35.299Z,95127.03
2018-11-04T07:27:04.511Z,95128.98
2018-11-04T07:29:33.697Z,95135.03
2018-11-04T07:32:03.007Z,95138.39
2018-11-04T07:34:32.375Z,95131.79
2018-11-04T07:37:01.563Z,95133.89
2018-11-04T07:39:31.418Z,95128.02
2018-11-04T07:42:00.606Z,95129.97
2018-11-04T07:44:29.872Z,95127.11
2018-11-04T07:46:59.031Z,95123.30
2018-11-04T07:49:28.224Z,95122.37
2018-11-04T07:51:57.410Z,95128.05
2018-11-04T07:54:26.610Z,95127.70
2018-11-04T07:56:55.845Z,95123.79
2018-11-04T07:59:25.018Z,95119.84
2018-11-04T08:01:54.221Z,95125.94
2018-11-04T08:04:23.414Z,95123.16
2018-11-04T08:06:52.587Z,95116.61
2018-11-04T08:09:21.797Z,95112.48
2018-11-04T08:11:50.987Z,95112.64
2018-11-04T08:14:20.192Z,95114.66
2018-11-04T08:16:49.356Z,95118.45
2018-11-04T08:19:18.539Z,95128.63
2018-11-04T08:21:47.743Z,95119.28
2018-11-04T08:24:16.946Z,95120.55
2018-11-04T08:26:46.122Z,95123.51
2018-11-04T08:29:15.322Z,95127.45
2018-11-04T08:31:44.502Z,95118.92
2018-11-04T08:34:13.758Z,95125.97
2018-11-04T08:36:43.015Z,95119.77
2018-11-04T08:39:12.349Z,95103.88
2018-11-04T08:41:41.515Z,95102.55
2018-11-04T08:44:10.756Z,95101.69
2018-11-04T08:46:39.946Z,95103.00
2018-11-04T08:49:09.170Z,95100.58
2018-11-04T08:51:38.363Z,95097.83
2018-11-04T08:54:07.575Z,95096.50
2018-11-04T08:56:36.762Z,95097.16
2018-11-04T08:59:05.975Z,95088.14
2018-11-04T09:01:35.161Z,95078.98
2018-11-04T09:04:04.471Z,95074.23
2018-11-04T09:06:33.829Z,95076.67
2018-11-04T09:09:02.839Z,95070.46
2018-11-04T09:11:32.029Z,95072.25
2018-11-04T09:14:01.294Z,95073.38
2018-11-04T09:16:30.435Z,95068.98
2018-11-04T09:18:59.631Z,95067.48
2018-11-04T09:21:28.830Z,95061.55
2018-11-04T09:23:58.027Z,95068.59
2018-11-04T09:26:27.237Z,95069.03
2018-11-04T09:28:56.460Z,95069.41
2018-11-04T09:31:25.843Z,95070.23
2018-11-04T09:33:55.028Z,95072.39
2018-11-04T09:36:24.418Z,95066.39
2018-11-04T09:38:53.429Z,95060.38
2018-11-04T09:41:22.709Z,95060.33
2018-11-04T09:43:51.914Z,95050.39
2018-11-04T09:46:21.151Z,95049.15
2018-11-04T09:49:21.053Z,95061.17
2018-11-04T09:51:50.252Z,95061.72
2018-11-04T09:54:19.470Z,95055.01
2018-11-04T09:56:48.707Z,95046.27
2018-11-04T09:59:17.868Z,95035.81
2018-11-04T10:01:47.063Z,95040.63
2018-11-04T10:04:16.263Z,95028.44
2018-11-04T10:06:45.466Z,95034.98
2018-11-04T10:09:14.714Z,95035.69
2018-11-04T10:11:43.932Z,95027.28
2018-11-04T10:14:13.123Z,95018.91
2018-11-04T10:16:42.311Z,95012.72
2018-11-04T10:19:11.591Z,95001.32
2018-11-04T10:21:40.723Z,95003.89
2018-11-04T10:24:09.922Z,95008.84
2018-11-04T10:26:39.148Z,95011.96
2018-11-04T10:29:08.715Z,94999.59
2018-11-04T10:31:37.916Z,94994.66
2018-11-04T10:34:07.119Z,94983.11
2018-11-04T10:36:36.378Z,94989.02
2018-11-04T10:39:08.595Z,94990.23
2018-11-04T10:41:37.798Z,94990.23
2018-11-04T10:44:06.999Z,94986.61
2018-11-04T10:46:36.187Z,94979.39
2018-11-04T10:49:05.836Z,94969.97
2018-11-04T10:51:36.280Z,94981.03
2018-11-04T10:54:05.560Z,94974.30
2018-11-04T10:56:34.781Z,94969.78
2018-11-04T10:59:04.269Z,94974.67
2018-11-04T11:01:33.476Z,94971.95
2018-11-04T11:04:02.669Z,94965.69
2018-11-04T11:06:31.875Z,94963.65
2018-11-04T11:09:01.385Z,94958.01
2018-11-04T11:11:30.591Z,94960.30
2018-11-04T11:13:59.799Z,94961.98
2018-11-04T11:16:29.022Z,94964.88
2018-11-04T11:18:58.227Z,94957.22
2018-11-04T11:21:27.444Z,94945.06
2018-11-04T11:23:56.991Z,94951.35
2018-11-04T11:26:26.271Z,94941.95
2018-11-04T11:28:55.505Z,94941.46
2018-11-04T11:31:24.702Z,94946.52
2018-11-04T11:33:53.902Z,94936.09
2018-11-04T11:36:23.103Z,94940.05
2018-11-04T11:38:52.323Z,94939.04
2018-11-04T11:41:21.664Z,94919.02
2018-11-04T11:43:50.851Z,94914.83
2018-11-04T11:46:20.079Z,94913.97
2018-11-04T11:48:49.284Z,94903.23
2018-11-04T11:51:18.533Z,94903.53
2018-11-04T11:53:47.718Z,94908.00
2018-11-04T11:56:16.928Z,94901.94
2018-11-04T11:58:46.206Z,94903.64
2018-11-04T12:01:15.412Z,94913.14
2018-11-04T12:03:44.617Z,94909.22
2018-11-04T12:06:13.824Z,94891.68
2018-11-04T12:08:43.022Z,94885.75
2018-11-04T12:11:12.482Z,94886.82
2018-11-04T12:13:41.679Z,94889.95
2018-11-04T12:16:10.867Z,94889.17
2018-11-04T12:18:40.481Z,94889.23
2018-11-04T12:21:09.672Z,94887.20
2018-11-04T12:23:38.887Z,94882.41
2018-11-04T12:26:08.115Z,94873.86
2018-11-04T12:28:37.296Z,94867.52
2018-11-04T12:31:06.774Z,94867.03
2018-11-04T12:33:35.988Z,94863.14
2018-11-04T12:36:05.174Z,94858.52
2018-11-04T12:38:34.391Z,94853.67
2018-11-04T12:41:03.591Z,94850.30
2018-11-04T12:43:32.795Z,94845.66
2018-11-04T12:46:02.003Z,94837.83
2018-11-04T12:48:31.210Z,94841.30
2018-11-04T12:51:00.409Z,94837.23
2018-11-04T12:53:29.588Z,94836.06
2018-11-04T12:55:58.779Z,94839.63
2018-11-04T12:58:28.061Z,94834.88
2018-11-04T13:00:57.270Z,94824.52
2018-11-04T13:03:26.475Z,94828.04
2018-11-04T13:05:55.656Z,94820.42
2018-11-04T13:08:24.880Z,94823.17
2018-11-04T13:10:54.083Z,94825.02
2018-11-04T13:13:23.323Z,94820.04
2018-11-04T13:15:52.538Z,94816.39
2018-11-04T13:18:21.727Z,94811.69
2018-11-04T13:20:50.964Z,94812.45
2018-11-04T13:23:20.180Z,94811.36
2018-11-04T13:25:49.363Z,94808.56
2018-11-04T13:28:18.588Z,94809.50
2018-11-04T13:30:47.785Z,94805.16
2018-11-04T13:33:16.987Z,94806.67
2018-11-04T13:35:46.244Z,94803.25
2018-11-04T13:38:15.407Z,94791.62
2018-11-04T13:40:44.594Z,94785.55
2018-11-04T13:43:13.864Z,94792.59
2018-11-04T13:45:43.015Z,94783.53
2018-11-04T13:48:12.206Z,94785.77
2018-11-04T13:50:41.414Z,94790.06
2018-11-04T13:53:10.596Z,94797.81
2018-11-04T13:55:39.791Z,94788.55
2018-11-04T13:58:08.993Z,94780.50
2018-11-04T14:00:39.422Z,94780.14
2018-11-04T14:03:08.724Z,94780.11
2018-11-04T14:05:37.815Z,94784.89
2018-11-04T14:08:06.996Z,94793.31
2018-11-04T14:10:36.206Z,94799.38
2018-11-04T14:13:05.831Z,94793.28
2018-11-04T14:15:35.059Z,94778.36
2018-11-04T14:18:04.263Z,94780.87
2018-11-04T14:20:33.466Z,94780.58
2018-11-04T14:23:02.678Z,94779.27
2018-11-04T14:25:31.869Z,94774.20
2018-11-04T14:28:01.079Z,94763.27
2018-11-04T14:30:30.313Z,94767.22
2018-11-04T14:32:59.497Z,94765.16
2018-11-04T14:35:28.703Z,94758.91
2018-11-04T14:37:57.952Z,94759.91
2018-11-04T14:40:27.163Z,94757.22
2018-11-04T14:42:56.362Z,94751.38
2018-11-04T14:45:25.635Z,94751.73
2018-11-04T14:47:54.834Z,94753.98
2018-11-04T14:50:24.063Z,94755.45
2018-11-04T14:52:53.367Z,94754.01
2018-11-04T14:55:22.495Z,94750.07
2018-11-04T14:57:51.696Z,94743.08
2018-11-04T15:00:20.903Z,94739.16
2018-11-04T15:02:50.095Z,94747.38
2018-11-04T15:05:19.286Z,94748.20
2018-11-04T15:07:48.482Z,94753.14
2018-11-04T15:10:17.700Z,94740.69
2018-11-04T15:12:46.895Z,94736.77
2018-11-04T15:15:17.379Z,94725.87
2018-11-04T15:17:46.610Z,94728.02
2018-11-04T15:20:15.843Z,94731.62
2018-11-04T15:22:47.554Z,94733.95
2018-11-04T15:25:17.903Z,94737.05
2018-11-04T15:27:47.192Z,94729.26
2018-11-04T15:30:16.422Z,94731.59
2018-11-04T15:32:45.796Z,94732.03
2018-11-04T15:35:16.656Z,94730.15
2018-11-04T15:37:46.127Z,94725.06
2018-11-04T15:40:16.212Z,94715.88
2018-11-04T15:42:45.360Z,94713.76
2018-11-04T15:45:15.410Z,94720.48
2018-11-04T15:47:44.586Z,94715.17
2018-11-04T15:50:15.246Z,94718.75
2018-11-04T15:52:44.474Z,94718.58
2018-11-04T15:55:13.736Z,94714.84
2018-11-04T15:57:42.923Z,94716.12
2018-11-04T16:00:13.716Z,94716.97
2018-11-04T16:02:42.926Z,94716.23
2018-11-04T16:05:12.330Z,94708.88
2018-11-04T16:07:41.471Z,94705.14
2018-11-04T16:10:11.516Z,94706.32
2018-11-04T16:12:40.694Z,94709.83
2018-11-04T16:15:12.324Z,94719.77
2018-11-04T16:17:41.844Z,94719.06
2018-11-04T16:20:12.458Z,94719.08
2018-11-04T16:22:42.136Z,94720.99
2018-11-04T16:25:12.006Z,94721.05
2018-11-04T16:27:42.162Z,94717.48
2018-11-04T16:30:12.952Z,94707.02
2018-11-04T16:32:42.174Z,94695.08
2018-11-04T16:35:12.418Z,94710.80
2018-11-04T16:37:42.442Z,94726.10
2018-11-04T16:40:11.856Z,94719.24
2018-11-04T16:42:41.106Z,94720.99
2018-11-04T16:45:13.345Z,94722.23
2018-11-04T16:47:42.561Z,94715.27
2018-11-04T16:50:12.741Z,94714.66
2018-11-04T16:52:42.357Z,94699.91
2018-11-04T16:55:12.605Z,94704.05
2018-11-04T16:57:42.170Z,94708.64
2018-11-04T17:00:11.931Z,94701.91
2018-11-04T17:02:41.165Z,94701.77
2018-11-04T17:05:11.473Z,94701.47
2018-11-04T17:07:40.615Z,94704.09
2018-11-04T17:10:10.135Z,94721.75
2018-11-04T17:12:39.410Z,94710.52
2018-11-04T17:15:11.096Z,94713.84
2018-11-04T17:17:40.422Z,94708.47
2018-11-04T17:20:16.359Z,94705.21
2018-11-04T17:22:45.961Z,94703.75
2018-11-04T17:25:15.299Z,94696.05
2018-11-04T17:27:44.597Z,94698.16
2018-11-04T17:30:16.143Z,94695.27
2018-11-04T17:32:45.508Z,94697.37
2018-11-04T17:35:15.402Z,94683.42
2018-11-04T17:37:44.924Z,94688.73
2018-11-04T17:40:14.907Z,94682.88
2018-11-04T17:42:44.207Z,94681.27
2018-11-04T17:45:14.674Z,94684.31
2018-11-04T17:47:43.947Z,94678.17
2018-11-04T17:50:15.778Z,94681.33
2018-11-04T17:52:45.095Z,94683.41
2018-11-04T17:55:14.313Z,94676.67
2018-11-04T17:57:43.766Z,94688.50
2018-11-04T18:00:13.689Z,94687.98
2018-11-04T18:02:43.346Z,94693.29
2018-11-04T18:05:12.994Z,94676.67
2018-11-04T18:07:42.777Z,94693.31
2018-11-04T18:10:12.689Z,94701.75
2018-11-04T18:12:41.902Z,94697.05
2018-11-04T18:15:11.863Z,94696.42
2018-11-04T18:17:41.295Z,94700.39
2018-11-04T18:20:11.401Z,94690.89
2018-11-04T18:22:40.614Z,94701.55
2018-11-04T18:25:10.767Z,94697.38
2018-11-04T18:27:39.963Z,94694.77
2018-11-04T18:30:12.547Z,94695.02
2018-11-04T18:32:41.852Z,94695.05
2018-11-04T18:35:11.292Z,94687.39
2018-11-04T18:37:40.601Z,94691.20
2018-11-04T18:40:12.617Z,94685.33
2018-11-04T18:42:42.048Z,94688.77
2018-11-04T18:45:12.552Z,94686.33
2018-11-04T18:47:41.835Z,94684.98
2018-11-04T18:50:12.190Z,94692.52
2018-11-04T18:52:41.586Z,94687.14
2018-11-04T18:55:11.929Z,94696.64
2018-11-04T18:57:41.907Z,94690.28
2018-11-04T19:00:14.191Z,94683.58
2018-11-04T19:02:43.591Z,94676.91
2018-11-04T19:05:12.786Z,94679.69
2018-11-04T19:07:42.024Z,94676.41
2018-11-04T19:10:13.270Z,94675.92
2018-11-04T19:12:43.281Z,94686.70
2018-11-04T19:15:12.492Z,94689.66
2018-11-04T19:17:41.744Z,94672.68
2018-11-04T19:20:12.724Z,94683.09
2018-11-04T19:22:42.094Z,94680.82
2018-11-04T19:25:12.344Z,94677.25
2018-11-04T19:27:41.666Z,94692.27
2018-11-04T19:30:13.015Z,94671.85
2018-11-04T19:32:42.340Z,94661.25
2018-11-04T19:35:12.395Z,94661.89
2018-11-04T19:37:41.770Z,94669.09
2018-11-04T19:40:12.117Z,94673.98
2018-11-04T19:42:41.695Z,94675.42
2018-11-04T19:45:10.850Z,94682.63
2018-11-04T19:47:40.400Z,94679.19
2018-11-04T19:50:11.707Z,94686.65
2018-11-04T19:52:42.447Z,94690.84
2018-11-04T19:55:12.287Z,94695.64
2018-11-04T19:57:41.532Z,94684.95
2018-11-04T20:00:11.992Z,94687.05
2018-11-04T20:02:41.283Z,94681.56
2018-11-04T20:05:11.737Z,94680.35
2018-11-04T20:07:40.898Z,94678.80
2018-11-04T20:10:12.848Z,94677.65
2018-11-04T20:12:47.283Z,94676.71
2018-11-04T20:15:16.623Z,94663.77
2018-11-04T20:17:46.707Z,94662.12
2018-11-04T20:20:17.796Z,94669.94
2018-11-04T20:22:47.000Z,94669.14
2018-11-04T20:25:21.302Z,94669.69
2018-11-04T20:27:50.762Z,94679.44
2018-11-04T20:30:19.947Z,94684.62
2018-11-04T20:32:54.295Z,94684.25
2018-11-04T20:35:23.531Z,94685.55
2018-11-04T20:37:52.788Z,94679.34
2018-11-04T20:40:27.110Z,94679.14
2018-11-04T20:42:56.352Z,94664.33
2018-11-04T20:45:25.555Z,94661.41
2018-11-04T20:47:59.971Z,94658.18
2018-11-04T20:50:34.396Z,94667.67
2018-11-04T20:53:03.586Z,94662.91
2018-11-04T20:55:38.065Z,94658.02
2018-11-04T20:58:07.316Z,94659.22
2018-11-04T21:00:36.463Z,94662.47
2018-11-04T21:03:05.711Z,94657.87
2018-11-04T21:05:34.904Z,94647.97
2018-11-04T21:08:04.112Z,94647.04
2018-11-04T21:10:33.325Z,94644.61
2018-11-04T21:13:02.537Z,94635.20
2018-11-04T21:15:31.737Z,94630.16
2018-11-04T21:18:00.935Z,94626.42
2018-11-04T21:20:30.123Z,94635.85
2018-11-04T21:22:59.317Z,94636.96
2018-11-04T21:25:28.655Z,94638.52
2018-11-04T21:27:57.890Z,94636.53
2018-11-04T21:30:26.959Z,94635.50
2018-11-04T21:32:56.154Z,94632.92
2018-11-04T21:35:25.342Z,94633.02
2018-11-04T21:37:54.613Z,94638.38
2018-11-04T21:40:23.758Z,94633.49
2018-11-04T21:42:52.994Z,94627.63
2018-11-04T21:45:22.142Z,94631.03
2018-11-04T21:47:51.336Z,94618.96
2018-11-04T21:50:21.368Z,94610.80
2018-11-04T21:52:50.583Z,94619.92
2018-11-04T21:55:19.950Z,94619.41
2018-11-04T21:57:48.966Z,94610.46
2018-11-04T22:00:18.446Z,94608.48
2018-11-04T22:02:47.862Z,94616.42
2018-11-04T22:05:16.868Z,94609.42
2018-11-04T22:07:46.088Z,94614.73
2018-11-04T22:10:16.079Z,94611.38
2018-11-04T22:12:45.305Z,94603.56
2018-11-04T22:15:14.502Z,94596.81
2018-11-04T22:17:43.710Z,94604.16
2018-11-04T22:20:13.582Z,94604.66
2018-11-04T22:22:42.817Z,94609.08
2018-11-04T22:25:12.303Z,94602.89
2018-11-04T22:27:41.523Z,94596.70
2018-11-04T22:30:11.942Z,94596.39
2018-11-04T22:32:41.462Z,94599.33
2018-11-04T22:35:11.622Z,94605.72
2018-11-04T22:37:40.851Z,94593.94
2018-11-04T22:40:11.582Z,94597.84
2018-11-04T22:42:41.431Z,94609.47
2018-11-04T22:45:11.682Z,94611.12
2018-11-04T22:47:41.703Z,94612.69
2018-11-04T22:50:15.874Z,94604.43
2018-11-04T22:52:45.247Z,94596.78
2018-11-04T22:55:15.003Z,94596.44
2018-11-04T22:57:44.762Z,94600.50
2018-11-04T23:00:19.094Z,94604.83
2018-11-04T23:02:49.528Z,94583.94
2018-11-04T23:05:23.833Z,94592.23
2018-11-04T23:07:53.215Z,94585.58
2018-11-04T23:10:22.425Z,94587.20
2018-11-04T23:12:51.651Z,94591.39
2018-11-04T23:15:20.867Z,94583.09
2018-11-04T23:17:50.163Z,94576.09
2018-11-04T23:20:19.367Z,94585.84
2018-11-04T23:22:48.592Z,94584.04
2018-11-04T23:25:17.774Z,94583.41
2018-11-04T23:27:46.992Z,94575.11
2018-11-04T23:30:17.452Z,94569.88
2018-11-04T23:32:47.099Z,94571.52
2018-11-04T23:35:16.307Z,94566.45
2018-11-04T23:37:45.801Z,94558.45
2018-11-04T23:40:15.014Z,94551.44
2018-11-04T23:42:44.238Z,94554.88
2018-11-04T23:45:14.455Z,94559.07
2018-11-04T23:47:44.000Z,94550.45
2018-11-04T23:50:15.406Z,94548.95
2018-11-04T23:52:44.939Z,94554.98
2018-11-04T23:55:14.852Z,94556.23
2018-11-04T23:57:44.050Z,94553.52
